Terminal Aerodrome Forecast
Issued by NWS Glasgow, MT

Home | Current Version | Previous Version | Text Only | Print | Product List | Glossary On
Versions: 1 2 3 4 5 6 7 8 9 10 11 12 13
000
FTUS45 KGGW 231737
TAFGGW
TAF
KGGW 231737Z 2318/2418 20012G18KT P6SM SCT150
     FM240700 13012KT P6SM SCT130 WS020/18035KT
     FM241200 13011KT P6SM SCT140
     FM241700 23014G23KT P6SM VCSH SCT060 BKN110=

USA.gov is the U.S. government's official web portal to all federal, state and local government web resources and services.